Time;durP1;ratioP1;P1;durP2;ratioP2;P2;SDS_P1;SDS_P2;PMS_P1;PMS_P2;Temp;Humidity;BMP_temperature;BMP_pressure;BME280_temperature;BME280_humidity;BME280_pressure;Samples;Min_cycle;Max_cycle;Signal;HPM_P1;HPM_P2
2022/07/20 00:01:41;;;;;;;;;;;;;;;21.32;49.58;101664.11;1692327;84;25813;-60
2022/07/20 00:04:07;;;;;;;;;;;;;;;21.26;49.91;101667.57;1690190;85;25746;-60
2022/07/20 00:06:34;;;;;;;;;;;;;;;21.20;50.32;101666.42;1689748;83;27491;-60
2022/07/20 00:11:47;;;;;;;;;;;;;;;21.00;50.49;101667.45;1689843;85;25446;-60
2022/07/20 00:14:14;;;;;;;;;;;;;;;20.92;50.53;101672.50;1690153;85;25855;-60
2022/07/20 00:16:40;;;;;;;;;;;;;;;20.87;50.64;101670.81;1689738;85;25754;-60
2022/07/20 00:19:07;;;;;;;;;;;;;;;20.83;50.75;101670.86;1689840;83;27447;-60
2022/07/20 00:21:33;;;;;;;;;;;;;;;20.79;50.88;101670.87;1689546;85;25840;-60
2022/07/20 00:24:00;;;;;;;;;;;;;;;20.71;50.98;101674.47;1689723;85;25680;-60
2022/07/20 00:26:27;;;;;;;;;;;;;;;20.60;51.26;101666.71;1689983;85;25724;-60
2022/07/20 00:28:53;;;;;;;;;;;;;;;20.56;51.37;101665.36;1689335;83;25945;-60
2022/07/20 00:31:21;;;;;;;;;;;;;;;20.52;51.22;101664.88;1687255;85;27550;-60
2022/07/20 00:33:48;;;;;;;;;;;;;;;20.46;51.34;101658.77;1687443;85;25734;-61
2022/07/20 00:36:15;;;;;;;;;;;;;;;20.42;51.39;101666.98;1687329;85;25433;-60
2022/07/20 00:38:42;;;;;;;;;;;;;;;20.41;51.65;101663.41;1687324;85;25760;-60
2022/07/20 00:41:09;;;;;;;;;;;;;;;20.36;51.19;101658.14;1687484;85;25769;-60
2022/07/20 00:44:02;;;;;;;;;;;;;;;20.29;51.95;101651.17;1687329;85;27496;-60
2022/07/20 00:46:30;;;;;;;;;;;;;;;20.23;51.86;101652.73;1694067;84;26144;-59
2022/07/20 00:48:57;;;;;;;;;;;;;;;20.20;52.49;101650.37;1699989;84;25789;-60
2022/07/20 00:51:25;;;;;;;;;;;;;;;20.16;52.66;101649.02;1699893;84;25823;-60
2022/07/20 00:53:52;;;;;;;;;;;;;;;20.08;52.62;101645.80;1700307;84;25813;-59
2022/07/20 00:56:19;;;;;;;;;;;;;;;20.03;52.76;101640.56;1696642;84;28246;-60
2022/07/20 00:58:46;;;;;;;;;;;;;;;19.95;52.83;101640.08;1695437;84;25556;-60
2022/07/20 01:01:13;;;;;;;;;;;;;;;19.87;53.20;101634.13;1698401;84;25757;-59
2022/07/20 01:03:41;;;;;;;;;;;;;;;19.81;53.20;101638.90;1679733;84;26580;-59
2022/07/20 01:06:08;;;;;;;;;;;;;;;19.74;53.65;101636.55;1700451;84;25709;-60
2022/07/20 01:08:35;;;;;;;;;;;;;;;19.69;53.71;101634.34;1700089;83;27402;-59
2022/07/20 01:11:02;;;;;;;;;;;;;;;19.67;53.77;101638.62;1699908;84;25770;-60
2022/07/20 01:13:28;;;;;;;;;;;;;;;19.64;53.64;101632.13;1699975;84;25782;-60
2022/07/20 01:15:56;;;;;;;;;;;;;;;19.62;53.84;101641.00;1700125;84;25859;-60
2022/07/20 01:18:23;;;;;;;;;;;;;;;19.55;53.52;101636.75;1699999;84;25829;-59
2022/07/20 01:20:50;;;;;;;;;;;;;;;19.47;53.94;101646.85;1700173;84;27504;-59
2022/07/20 01:23:18;;;;;;;;;;;;;;;19.41;54.43;101648.39;1699983;84;25769;-59
2022/07/20 01:25:44;;;;;;;;;;;;;;;19.33;54.78;101657.44;1699925;83;25793;-60
2022/07/20 01:28:13;;;;;;;;;;;;;;;19.27;55.41;101652.67;1700080;84;25810;-59
2022/07/20 01:30:41;;;;;;;;;;;;;;;19.25;55.15;101649.27;1699907;84;25735;-59
2022/07/20 01:33:08;;;;;;;;;;;;;;;19.23;55.08;101641.75;1700055;84;27469;-60
2022/07/20 01:35:35;;;;;;;;;;;;;;;19.20;55.34;101646.21;1699958;84;25759;-60
2022/07/20 01:38:01;;;;;;;;;;;;;;;19.18;55.91;101642.30;1700082;83;25783;-60
2022/07/20 01:40:28;;;;;;;;;;;;;;;19.15;55.66;101648.09;1700024;84;25810;-60
2022/07/20 01:42:55;;;;;;;;;;;;;;;19.11;56.72;101642.63;1700037;84;25695;-61
2022/07/20 01:45:21;;;;;;;;;;;;;;;19.07;56.50;101638.02;1699035;84;28405;-59
2022/07/20 01:47:48;;;;;;;;;;;;;;;19.06;56.48;101633.59;1687126;85;25729;-59
2022/07/20 01:50:14;;;;;;;;;;;;;;;19.07;56.68;101635.30;1687281;85;25731;-59
2022/07/20 01:52:41;;;;;;;;;;;;;;;19.07;56.43;101635.83;1687386;85;26585;-59
2022/07/20 01:55:09;;;;;;;;;;;;;;;19.04;56.78;101630.21;1690011;84;25656;-59
2022/07/20 01:57:35;;;;;;;;;;;;;;;19.04;56.47;101634.80;1700057;84;28310;-59
2022/07/20 02:00:05;;;;;;;;;;;;;;;19.04;56.31;101630.21;1699096;84;26442;-59
2022/07/20 02:02:33;;;;;;;;;;;;;;;19.03;56.70;101631.23;1692215;83;25789;-59
2022/07/20 02:05:00;;;;;;;;;;;;;;;19.03;56.98;101630.36;1692117;84;25803;-60
2022/07/20 02:07:26;;;;;;;;;;;;;;;19.02;56.48;101633.61;1692213;84;25710;-60
2022/07/20 02:09:53;;;;;;;;;;;;;;;19.00;56.28;101623.91;1692162;84;27502;-60
2022/07/20 02:12:19;;;;;;;;;;;;;;;18.92;56.86;101622.86;1692202;84;25796;-60
2022/07/20 02:14:46;;;;;;;;;;;;;;;18.87;57.06;101619.77;1692287;84;25736;-60
2022/07/20 02:17:12;;;;;;;;;;;;;;;18.83;57.19;101632.03;1692252;83;25808;-60
2022/07/20 02:19:39;;;;;;;;;;;;;;;18.78;57.32;101632.53;1692201;83;26038;-59
2022/07/20 02:22:06;;;;;;;;;;;;;;;18.74;57.37;101631.19;1692212;84;27552;-61
2022/07/20 02:24:33;;;;;;;;;;;;;;;18.70;57.57;101631.17;1691991;84;25708;-60
2022/07/20 02:26:59;;;;;;;;;;;;;;;18.66;57.19;101631.19;1692265;84;25698;-59
2022/07/20 02:29:26;;;;;;;;;;;;;;;18.63;57.30;101628.78;1691432;83;27910;-59
2022/07/20 02:31:52;;;;;;;;;;;;;;;18.56;58.19;101633.21;1687218;85;25781;-59
2022/07/20 02:34:19;;;;;;;;;;;;;;;18.49;58.36;101633.02;1687091;85;26684;-60
2022/07/20 02:36:45;;;;;;;;;;;;;;;18.48;58.45;101631.84;1687047;85;25877;-60
2022/07/20 02:39:12;;;;;;;;;;;;;;;18.42;58.28;101629.27;1687134;85;25739;-60
2022/07/20 02:41:38;;;;;;;;;;;;;;;18.40;58.56;101632.66;1687219;85;25859;-60
2022/07/20 02:44:05;;;;;;;;;;;;;;;18.36;58.50;101623.97;1687282;84;25457;-60
2022/07/20 02:46:31;;;;;;;;;;;;;;;18.35;58.21;101624.15;1688606;84;27492;-60
2022/07/20 02:48:58;;;;;;;;;;;;;;;18.32;58.66;101620.39;1689550;85;25790;-60
2022/07/20 02:51:24;;;;;;;;;;;;;;;18.30;58.93;101632.82;1689708;85;25811;-60
2022/07/20 02:53:51;;;;;;;;;;;;;;;18.26;58.76;101628.71;1689970;85;25881;-60
2022/07/20 02:56:18;;;;;;;;;;;;;;;18.23;58.83;101626.34;1689743;85;26533;-60
2022/07/20 02:58:44;;;;;;;;;;;;;;;18.21;59.01;101629.73;1689777;85;27540;-60
2022/07/20 03:01:11;;;;;;;;;;;;;;;18.17;59.25;101623.77;1696984;84;25942;-60
2022/07/20 03:03:38;;;;;;;;;;;;;;;18.16;58.98;101628.86;1702024;84;25504;-60
2022/07/20 03:06:06;;;;;;;;;;;;;;;18.14;59.25;101635.84;1702214;84;25729;-60
2022/07/20 03:08:32;;;;;;;;;;;;;;;18.12;59.45;101636.52;1702541;84;25656;-60
2022/07/20 03:10:59;;;;;;;;;;;;;;;18.09;59.36;101639.55;1702437;84;27507;-60
2022/07/20 03:13:25;;;;;;;;;;;;;;;18.10;59.80;101634.98;1702329;83;25675;-60
2022/07/20 03:15:52;;;;;;;;;;;;;;;18.08;59.72;101643.30;1702120;84;25758;-60
2022/07/20 03:18:19;;;;;;;;;;;;;;;18.05;60.05;101638.69;1702220;84;25790;-60
2022/07/20 03:20:46;;;;;;;;;;;;;;;18.05;60.16;101642.28;1702186;84;25647;-60
2022/07/20 03:23:13;;;;;;;;;;;;;;;18.07;60.28;101642.95;1702313;84;27516;-60
2022/07/20 03:25:39;;;;;;;;;;;;;;;18.09;60.34;101649.09;1702318;84;25738;-60
2022/07/20 03:28:06;;;;;;;;;;;;;;;18.09;60.68;101652.33;1702039;84;25830;-60
2022/07/20 03:30:33;;;;;;;;;;;;;;;18.10;60.58;101649.95;1700996;84;25913;-59
2022/07/20 03:33:01;;;;;;;;;;;;;;;18.12;60.69;101646.05;1699765;84;25869;-60
2022/07/20 03:35:28;;;;;;;;;;;;;;;18.14;60.93;101648.10;1698759;84;27817;-60
2022/07/20 03:37:54;;;;;;;;;;;;;;;18.15;61.12;101653.86;1699781;84;25898;-60
2022/07/20 03:40:21;;;;;;;;;;;;;;;18.18;60.90;101653.20;1679832;84;26307;-59
2022/07/20 03:42:47;;;;;;;;;;;;;;;18.20;61.01;101658.81;1699853;84;25804;-60
2022/07/20 03:45:14;;;;;;;;;;;;;;;18.26;61.02;101665.48;1699514;84;25952;-59
2022/07/20 03:47:41;;;;;;;;;;;;;;;18.29;60.73;101659.71;1691938;84;27562;-60
2022/07/20 03:50:09;;;;;;;;;;;;;;;18.35;60.76;101662.28;1692031;84;25739;-60
2022/07/20 03:52:36;;;;;;;;;;;;;;;18.37;60.74;101659.73;1692118;84;25750;-60
2022/07/20 03:55:02;;;;;;;;;;;;;;;18.42;60.56;101661.43;1691072;84;25784;-60
2022/07/20 03:57:29;;;;;;;;;;;;;;;18.48;60.75;101653.63;1686069;84;25469;-60
2022/07/20 03:59:55;;;;;;;;;;;;;;;18.54;60.73;101652.95;1686602;84;28363;-60
2022/07/20 04:02:22;;;;;;;;;;;;;;;18.61;60.81;101652.12;1692568;84;25791;-60
2022/07/20 04:04:48;;;;;;;;;;;;;;;18.69;60.47;101654.52;1692122;84;25800;-60
2022/07/20 04:07:15;;;;;;;;;;;;;;;18.75;60.46;101654.70;1692050;84;25803;-60
2022/07/20 04:09:46;;;;;;;;;;;;;;;18.84;60.32;101654.70;1692233;84;25753;-60
2022/07/20 04:12:16;;;;;;;;;;;;;;;18.90;60.11;101653.52;1692383;84;28300;-60
2022/07/20 04:14:44;;;;;;;;;;;;;;;18.97;60.13;101659.69;1691931;84;26353;-59
2022/07/20 04:17:10;;;;;;;;;;;;;;;19.05;59.90;101670.06;1692124;84;25788;-60
2022/07/20 04:19:38;;;;;;;;;;;;;;;19.13;59.84;101660.20;1692197;84;25810;-60
2022/07/20 04:22:05;;;;;;;;;;;;;;;19.21;59.65;101660.20;1692179;84;25776;-60
2022/07/20 04:24:32;;;;;;;;;;;;;;;19.29;59.49;101657.95;1692227;84;27514;-60
2022/07/20 04:26:59;;;;;;;;;;;;;;;19.37;59.63;101660.66;1692202;84;25741;-60
2022/07/20 04:29:25;;;;;;;;;;;;;;;19.46;58.96;101661.52;1692023;84;25825;-60
2022/07/20 04:31:52;;;;;;;;;;;;;;;19.55;59.04;101666.77;1687942;83;25916;-60
2022/07/20 04:34:19;;;;;;;;;;;;;;;19.60;58.89;101662.68;1687197;85;25825;-60
2022/07/20 04:36:45;;;;;;;;;;;;;;;19.66;58.06;101666.06;1687118;83;27492;-60
2022/07/20 04:39:12;;;;;;;;;;;;;;;19.71;57.68;101671.34;1687159;85;25693;-59
2022/07/20 04:41:39;;;;;;;;;;;;;;;19.79;56.92;101670.98;1687174;84;26450;-60
2022/07/20 04:44:06;;;;;;;;;;;;;;;19.86;56.86;101671.52;1687175;85;25825;-60
2022/07/20 04:46:33;;;;;;;;;;;;;;;19.94;56.15;101668.41;1695911;84;25682;-60
2022/07/20 04:49:00;;;;;;;;;;;;;;;20.00;54.91;101675.38;1702145;84;27495;-59
2022/07/20 04:51:26;;;;;;;;;;;;;;;20.01;54.60;101672.99;1702457;84;25648;-60
2022/07/20 04:53:53;;;;;;;;;;;;;;;20.03;54.30;101677.44;1702421;84;26257;-60
2022/07/20 04:56:20;;;;;;;;;;;;;;;20.06;54.19;101669.73;1695583;84;25804;-60
2022/07/20 04:58:54;;;;;;;;;;;;;;;20.12;54.10;101664.91;1692937;84;25766;-60
2022/07/20 05:01:25;;;;;;;;;;;;;;;20.20;53.49;101669.50;1699297;84;27512;-60
2022/07/20 05:03:52;;;;;;;;;;;;;;;20.28;53.21;101667.22;1702121;83;25751;-60
2022/07/20 05:06:20;;;;;;;;;;;;;;;20.30;53.25;101666.53;1702257;83;25678;-60
2022/07/20 05:08:46;;;;;;;;;;;;;;;20.36;52.92;101669.07;1702198;84;25864;-60
2022/07/20 05:11:13;;;;;;;;;;;;;;;20.41;53.00;101666.64;1702270;84;25699;-60
2022/07/20 05:13:40;;;;;;;;;;;;;;;20.47;52.61;101667.30;1702284;84;27464;-60
2022/07/20 05:16:07;;;;;;;;;;;;;;;20.50;52.09;101669.66;1702313;84;25703;-60
2022/07/20 05:18:34;;;;;;;;;;;;;;;20.54;51.88;101661.95;1702236;84;25286;-59
2022/07/20 05:21:01;;;;;;;;;;;;;;;20.58;51.97;101658.67;1702330;84;25804;-60
2022/07/20 05:23:28;;;;;;;;;;;;;;;20.66;51.63;101655.05;1702306;84;25722;-60
2022/07/20 05:25:55;;;;;;;;;;;;;;;20.74;51.37;101663.75;1702116;84;27426;-59
2022/07/20 05:28:22;;;;;;;;;;;;;;;20.77;51.49;101666.96;1702204;84;25695;-59
2022/07/20 05:30:50;;;;;;;;;;;;;;;20.84;51.02;101667.09;1701565;84;25755;-60
2022/07/20 05:33:17;;;;;;;;;;;;;;;20.89;50.69;101664.65;1699981;84;26437;-60
2022/07/20 05:35:44;;;;;;;;;;;;;;;20.98;50.43;101670.89;1699775;84;25770;-60
2022/07/20 05:38:12;;;;;;;;;;;;;;;21.02;50.64;101668.66;1700008;84;27485;-59
2022/07/20 05:40:44;;;;;;;;;;;;;;;21.08;50.47;101669.28;1699877;83;25766;-59
2022/07/20 05:43:14;;;;;;;;;;;;;;;21.15;50.29;101665.30;1720340;82;25781;-59
2022/07/20 05:45:47;;;;;;;;;;;;;;;21.22;50.11;101671.20;1697867;84;25838;-60
2022/07/20 05:48:15;;;;;;;;;;;;;;;21.28;49.96;101672.88;1692189;84;26053;-60
2022/07/20 05:50:43;;;;;;;;;;;;;;;21.34;49.74;101668.86;1692091;84;27583;-60
2022/07/20 05:53:11;;;;;;;;;;;;;;;21.38;49.83;101663.36;1692052;84;25773;-58
2022/07/20 05:55:39;;;;;;;;;;;;;;;21.45;49.83;101667.58;1689715;84;25718;-60
2022/07/20 05:58:07;;;;;;;;;;;;;;;21.52;49.78;101663.05;1686203;85;25766;-60
2022/07/20 06:00:35;;;;;;;;;;;;;;;21.60;49.52;101662.66;1690901;84;26006;-59
2022/07/20 06:03:04;;;;;;;;;;;;;;;21.70;49.18;101665.97;1699854;84;27409;-61
2022/07/20 06:05:30;;;;;;;;;;;;;;;21.79;49.06;101669.45;1700142;84;25315;-60
2022/07/20 06:08:01;;;;;;;;;;;;;;;21.85;49.04;101664.06;1700052;84;26669;-59
2022/07/20 06:10:30;;;;;;;;;;;;;;;21.92;48.95;101659.22;1700046;83;25805;-60
2022/07/20 06:13:00;;;;;;;;;;;;;;;21.99;48.59;101656.88;1702237;84;25501;-60
2022/07/20 06:15:27;;;;;;;;;;;;;;;22.10;48.55;101650.05;1700117;83;27439;-61
2022/07/20 06:17:54;;;;;;;;;;;;;;;22.18;48.13;101651.84;1699642;84;25771;-60
2022/07/20 06:20:22;;;;;;;;;;;;;;;22.25;47.89;101646.45;1699126;84;25500;-61
2022/07/20 06:22:49;;;;;;;;;;;;;;;22.33;47.82;101645.80;1696990;83;25794;-60
2022/07/20 06:25:17;;;;;;;;;;;;;;;22.42;47.21;101645.21;1699682;84;25741;-60
2022/07/20 06:27:44;;;;;;;;;;;;;;;22.50;46.71;101640.98;1696649;84;28291;-60
2022/07/20 06:30:12;;;;;;;;;;;;;;;22.59;46.47;101633.45;1693418;84;25733;-59
2022/07/20 06:32:38;;;;;;;;;;;;;;;22.69;46.18;101635.02;1715778;83;25953;-60
2022/07/20 06:35:06;;;;;;;;;;;;;;;22.79;44.86;101630.06;1718111;82;25880;-61
2022/07/20 06:37:32;;;;;;;;;;;;;;;22.88;44.95;101631.62;1716863;83;26400;-60
2022/07/20 06:39:59;;;;;;;;;;;;;;;22.95;44.62;101633.06;1717831;82;27490;-59
2022/07/20 06:42:25;;;;;;;;;;;;;;;23.01;43.57;101627.31;1719171;83;25872;-60
2022/07/20 06:44:52;;;;;;;;;;;;;;;23.08;43.41;101620.84;1716661;83;25823;-60
2022/07/20 06:47:18;;;;;;;;;;;;;;;23.19;43.38;101624.96;1717792;83;25819;-60
2022/07/20 06:49:45;;;;;;;;;;;;;;;23.27;42.75;101622.06;1718102;83;25724;-60
2022/07/20 06:52:12;;;;;;;;;;;;;;;23.36;43.14;101623.28;1718078;83;28270;-59
2022/07/20 06:54:39;;;;;;;;;;;;;;;23.42;42.57;101626.08;1717671;83;25807;-61
2022/07/20 06:57:06;;;;;;;;;;;;;;;23.49;42.76;101618.39;1717417;83;25826;-59
2022/07/20 06:59:32;;;;;;;;;;;;;;;23.57;42.86;101616.86;1716826;83;25839;-61
2022/07/20 07:01:59;;;;;;;;;;;;;;;23.65;42.43;101608.45;1718355;83;25965;-61
2022/07/20 07:04:26;;;;;;;;;;;;;;;23.73;42.37;101597.83;1717989;82;27664;-61
2022/07/20 07:06:53;;;;;;;;;;;;;;;23.84;42.64;101598.63;1719911;83;25777;-61
2022/07/20 07:09:20;;;;;;;;;;;;;;;23.97;41.68;101603.88;1719052;83;25712;-58
2022/07/20 07:11:46;;;;;;;;;;;;;;;24.03;41.58;101600.30;1713254;83;26479;-59
2022/07/20 07:14:13;;;;;;;;;;;;;;;24.14;41.39;101592.00;1717698;83;25737;-60
2022/07/20 07:16:39;;;;;;;;;;;;;;;24.24;41.13;101588.33;1717722;83;28139;-59
2022/07/20 07:19:06;;;;;;;;;;;;;;;24.30;40.53;101586.11;1748727;82;25739;-59
2022/07/20 07:21:32;;;;;;;;;;;;;;;24.39;40.52;101592.25;1749116;82;25692;-58
2022/07/20 07:23:59;;;;;;;;;;;;;;;24.48;40.49;101587.42;1721468;81;25902;-58
2022/07/20 07:26:28;;;;;;;;;;;;;;;24.53;40.04;101587.62;1693729;84;25686;-60
2022/07/20 07:28:55;;;;;;;;;;;;;;;24.60;40.21;101579.39;1686815;85;27554;-60
2022/07/20 07:31:22;;;;;;;;;;;;;;;24.67;39.99;101588.00;1696029;83;27323;-60
2022/07/20 07:33:49;;;;;;;;;;;;;;;24.76;39.16;101580.38;1691659;84;25765;-60
2022/07/20 07:36:15;;;;;;;;;;;;;;;24.84;39.31;101575.20;1691445;84;25870;-60
2022/07/20 07:38:42;;;;;;;;;;;;;;;24.90;38.61;101578.47;1692893;84;26099;-60
2022/07/20 07:41:09;;;;;;;;;;;;;;;24.98;38.20;101578.80;1699486;84;27569;-61
2022/07/20 07:43:35;;;;;;;;;;;;;;;25.06;38.12;101569.45;1699604;84;25889;-60
2022/07/20 07:46:02;;;;;;;;;;;;;;;25.13;38.69;101559.30;1697248;84;25615;-61
2022/07/20 07:48:29;;;;;;;;;;;;;;;25.26;39.11;101557.05;1698362;84;25875;-60
2022/07/20 07:50:56;;;;;;;;;;;;;;;25.37;38.91;101556.36;1698584;83;26060;-61
2022/07/20 07:53:24;;;;;;;;;;;;;;;25.50;38.82;101562.42;1687135;85;27480;-62
2022/07/20 07:55:50;;;;;;;;;;;;;;;25.55;38.14;101551.59;1693147;83;25810;-59
2022/07/20 07:58:17;;;;;;;;;;;;;;;25.63;37.84;101547.75;1699765;84;25303;-59
2022/07/20 08:00:44;;;;;;;;;;;;;;;25.72;38.33;101544.20;1696624;83;25713;-60
2022/07/20 08:03:10;;;;;;;;;;;;;;;25.81;38.61;101545.64;1693064;84;25804;-59
2022/07/20 08:05:37;;;;;;;;;;;;;;;25.89;38.60;101538.50;1699640;83;27988;-59
2022/07/20 08:08:12;;;;;;;;;;;;;;;25.98;38.26;101534.11;1699903;84;25820;-60
2022/07/20 08:10:43;;;;;;;;;;;;;;;26.03;37.23;101529.63;1699539;84;26622;-60
2022/07/20 08:13:10;;;;;;;;;;;;;;;26.09;37.65;101529.31;1699865;84;26724;-61
2022/07/20 08:15:37;;;;;;;;;;;;;;;26.21;37.59;101527.55;1697388;84;25742;-60
2022/07/20 08:18:05;;;;;;;;;;;;;;;26.36;37.45;101531.88;1686288;85;28255;-60
2022/07/20 08:20:32;;;;;;;;;;;;;;;26.50;37.16;101534.84;1685953;85;25729;-60
2022/07/20 08:22:58;;;;;;;;;;;;;;;26.61;36.55;101531.05;1693359;83;25869;-61
2022/07/20 08:25:25;;;;;;;;;;;;;;;26.67;36.30;101530.16;1700021;84;26005;-60
2022/07/20 08:27:52;;;;;;;;;;;;;;;26.74;35.69;101525.94;1692452;84;25838;-60
2022/07/20 08:30:18;;;;;;;;;;;;;;;26.82;35.52;101514.64;1692005;84;28395;-60
2022/07/20 08:32:45;;;;;;;;;;;;;;;26.87;35.27;101515.66;1698408;84;26117;-60
2022/07/20 08:35:12;;;;;;;;;;;;;;;26.99;35.30;101517.67;1708358;83;25796;-59
2022/07/20 08:37:40;;;;;;;;;;;;;;;27.09;35.30;101501.95;1716765;82;25883;-59
2022/07/20 08:40:08;;;;;;;;;;;;;;;27.22;34.75;101510.62;1721451;82;25724;-60
2022/07/20 08:42:34;;;;;;;;;;;;;;;27.40;35.04;101502.88;1713127;82;27585;-60
2022/07/20 08:45:02;;;;;;;;;;;;;;;27.51;34.99;101494.37;1722389;82;25804;-60
2022/07/20 08:47:30;;;;;;;;;;;;;;;27.66;33.71;101494.80;1720104;82;26023;-60
2022/07/20 08:49:58;;;;;;;;;;;;;;;27.85;33.13;101507.20;1722671;82;25798;-60
2022/07/20 08:52:24;;;;;;;;;;;;;;;27.84;32.86;101499.45;1722020;82;25717;-60
2022/07/20 08:54:51;;;;;;;;;;;;;;;27.86;32.80;101493.68;1686830;84;27483;-60
2022/07/20 08:57:18;;;;;;;;;;;;;;;27.92;33.05;101484.47;1685579;84;25819;-58
2022/07/20 08:59:46;;;;;;;;;;;;;;;27.94;33.32;101467.94;1684866;84;26929;-59
2022/07/20 09:02:13;;;;;;;;;;;;;;;28.26;33.22;101482.05;1660718;84;25798;-60
2022/07/20 09:04:52;;;;;;;;;;;;;;;28.52;32.17;101485.45;1678464;85;25736;-59
2022/07/20 09:07:37;;;;;;;;;;;;;;;28.69;32.70;101477.26;1684188;84;27540;-60
2022/07/20 09:10:07;;;;;;;;;;;;;;;28.82;32.01;101475.67;1681513;85;25632;-60
2022/07/20 09:13:07;;;;;;;;;;;;;;;28.95;31.24;101468.20;1712523;82;25764;-59
2022/07/20 09:15:37;;;;;;;;;;;;;;;29.01;30.67;101470.82;1718280;83;25785;-59
2022/07/20 09:18:22;;;;;;;;;;;;;;;29.20;30.24;101463.74;1702342;84;25670;-61
2022/07/20 09:21:04;;;;;;;;;;;;;;;29.35;30.56;101447.48;1702188;84;27380;-59
2022/07/20 09:23:34;;;;;;;;;;;;;;;29.46;30.41;101454.06;1702163;83;25531;-60
2022/07/20 09:26:04;;;;;;;;;;;;;;;29.66;30.25;101445.86;1693255;84;25691;-61
2022/07/20 09:28:37;;;;;;;;;;;;;;;29.86;28.54;101450.07;1698663;84;25844;-60
2022/07/20 09:31:09;;;;;;;;;;;;;;;29.97;28.45;101443.13;1691406;84;25718;-59
2022/07/20 09:33:36;;;;;;;;;;;;;;;30.26;28.90;101434.70;1683592;84;28517;-60
2022/07/20 09:36:05;;;;;;;;;;;;;;;30.68;28.86;101439.55;1696681;84;25702;-60
2022/07/20 09:38:36;;;;;;;;;;;;;;;31.13;28.94;101433.48;1696764;83;25922;-60
2022/07/20 09:41:05;;;;;;;;;;;;;;;31.62;27.85;101428.48;1709302;83;25820;-60
2022/07/20 09:43:34;;;;;;;;;;;;;;;31.98;26.52;101433.02;1711128;83;25768;-61
2022/07/20 09:46:13;;;;;;;;;;;;;;;31.68;26.56;101423.31;1699396;83;27440;-59
2022/07/20 09:48:46;;;;;;;;;;;;;;;31.94;25.92;101427.72;1686229;84;25881;-59
2022/07/20 09:51:34;;;;;;;;;;;;;;;32.08;25.69;101416.98;1695092;84;25707;-60
2022/07/20 09:54:13;;;;;;;;;;;;;;;32.16;24.91;101417.88;1695143;84;25986;-60
2022/07/20 09:56:42;;;;;;;;;;;;;;;32.45;24.56;101414.78;1697368;84;25794;-63
2022/07/20 09:59:17;;;;;;;;;;;;;;;32.76;25.09;101400.48;1699776;84;27635;-60
2022/07/20 10:01:46;;;;;;;;;;;;;;;33.21;25.50;101400.13;1687648;84;25801;-60
2022/07/20 10:04:14;;;;;;;;;;;;;;;33.71;24.19;101394.38;1687163;85;25782;-61
2022/07/20 10:06:43;;;;;;;;;;;;;;;34.15;24.77;101385.18;1689272;84;25896;-61
2022/07/20 10:09:11;;;;;;;;;;;;;;;34.63;23.89;101379.23;1695331;83;25826;-61
2022/07/20 10:11:38;;;;;;;;;;;;;;;35.02;23.28;101377.15;1700848;84;27469;-61
2022/07/20 10:14:06;;;;;;;;;;;;;;;35.36;23.07;101369.39;1689411;83;26176;-62
2022/07/20 10:16:44;;;;;;;;;;;;;;;35.66;21.05;101369.48;1699835;84;25686;-58
2022/07/20 10:19:12;;;;;;;;;;;;;;;35.97;20.90;101360.86;1699834;84;25930;-58
2022/07/20 10:21:42;;;;;;;;;;;;;;;36.46;20.92;101363.17;1699614;84;25731;-59
2022/07/20 10:24:30;;;;;;;;;;;;;;;36.74;19.36;101367.61;1699171;84;27464;-60
2022/07/20 10:27:16;;;;;;;;;;;;;;;36.87;19.60;101362.66;1692075;84;25776;-61
2022/07/20 10:29:52;;;;;;;;;;;;;;;36.62;19.79;101361.03;1686046;85;25858;-60
2022/07/20 10:32:23;;;;;;;;;;;;;;;36.47;20.85;101358.66;1670402;86;25843;-62
2022/07/20 10:34:55;;;;;;;;;;;;;;;36.78;20.51;101347.09;1692777;83;25836;-61
2022/07/20 10:37:42;;;;;;;;;;;;;;;37.12;20.48;101346.08;1702341;84;27482;-60
2022/07/20 10:40:23;;;;;;;;;;;;;;;37.77;20.41;101340.86;1701831;84;25793;-61
2022/07/20 10:43:08;;;;;;;;;;;;;;;38.46;19.26;101337.94;1702430;83;25789;-61
2022/07/20 10:45:35;;;;;;;;;;;;;;;38.32;19.87;101328.06;1695953;83;26597;-61
2022/07/20 10:48:11;;;;;;;;;;;;;;;38.62;18.70;101325.80;1666301;86;25453;-61
2022/07/20 10:50:40;;;;;;;;;;;;;;;38.43;18.59;101315.52;1666269;86;27627;-61
2022/07/20 10:53:20;;;;;;;;;;;;;;;38.33;19.00;101322.16;1670624;84;26032;-61
2022/07/20 10:55:52;;;;;;;;;;;;;;;38.40;18.31;101316.72;1688763;84;25802;-61
2022/07/20 10:58:25;;;;;;;;;;;;;;;37.12;18.74;101331.20;1694317;84;25802;-61
2022/07/20 11:00:57;;;;;;;;;;;;;;;37.17;18.98;101325.53;1688564;84;25763;-61
2022/07/20 11:03:29;;;;;;;;;;;;;;;37.81;19.29;101324.22;1681822;85;27512;-62
2022/07/20 11:06:18;;;;;;;;;;;;;;;38.56;17.84;101314.39;1679838;84;25802;-61
2022/07/20 11:08:54;;;;;;;;;;;;;;;38.87;17.04;101310.95;1682202;85;25524;-61
2022/07/20 11:11:23;;;;;;;;;;;;;;;39.17;18.04;101306.57;1681847;85;25851;-61
2022/07/20 11:13:52;;;;;;;;;;;;;;;39.52;16.93;101308.85;1682039;85;43189;-61
2022/07/20 11:16:21;;;;;;;;;;;;;;;39.99;16.49;101302.84;1681735;85;27533;-61
2022/07/20 11:18:48;;;;;;;;;;;;;;;40.40;16.44;101306.50;1681941;85;25726;-61
2022/07/20 11:21:15;;;;;;;;;;;;;;;40.74;15.87;101309.17;1681964;85;25975;-61
2022/07/20 11:23:50;;;;;;;;;;;;;;;41.08;15.86;101311.22;1681896;85;25821;-61
2022/07/20 11:26:20;;;;;;;;;;;;;;;40.92;15.02;101294.52;1681877;85;26547;-61
2022/07/20 11:28:52;;;;;;;;;;;;;;;40.97;15.72;101296.56;1678658;85;27666;-61
2022/07/20 11:31:25;;;;;;;;;;;;;;;40.57;14.41;101304.31;1680210;85;25754;-61
2022/07/20 11:33:54;;;;;;;;;;;;;;;39.95;15.37;101287.17;1681750;85;25744;-61
2022/07/20 11:36:23;;;;;;;;;;;;;;;40.16;15.59;101276.17;1683336;85;25852;-61
2022/07/20 11:39:02;;;;;;;;;;;;;;;40.82;16.15;101280.98;1680775;85;25762;-61
2022/07/20 11:41:32;;;;;;;;;;;;;;;40.93;14.62;101282.05;1690448;83;27480;-61
2022/07/20 11:44:00;;;;;;;;;;;;;;;41.51;14.51;101269.18;1691201;83;25710;-61
2022/07/20 11:46:40;;;;;;;;;;;;;;;42.00;14.40;101266.88;1690767;85;25778;-61
2022/07/20 11:49:10;;;;;;;;;;;;;;;42.53;14.25;101259.53;1690787;83;25936;-61
2022/07/20 11:51:37;;;;;;;;;;;;;;;42.52;13.77;101255.86;1690805;84;25759;-62
2022/07/20 11:54:07;;;;;;;;;;;;;;;42.97;14.09;101256.36;1691447;83;28384;-62
2022/07/20 11:56:36;;;;;;;;;;;;;;;43.58;13.76;101247.87;1689646;83;25798;-62
2022/07/20 11:59:07;;;;;;;;;;;;;;;43.41;12.31;101248.28;1689691;85;25870;-62
2022/07/20 12:01:36;;;;;;;;;;;;;;;43.20;12.69;101245.52;1669487;83;25883;-62
2022/07/20 12:04:06;;;;;;;;;;;;;;;43.48;12.92;101239.22;1663433;86;25711;-62
2022/07/20 12:06:38;;;;;;;;;;;;;;;43.89;12.40;101239.41;1663028;85;27619;-62
2022/07/20 12:09:11;;;;;;;;;;;;;;;43.75;12.41;101238.34;1680210;83;25830;-62
2022/07/20 12:11:58;;;;;;;;;;;;;;;43.88;12.12;101227.27;1691301;84;25530;-62
2022/07/20 12:14:43;;;;;;;;;;;;;;;43.82;11.94;101225.83;1691246;85;26068;-62
2022/07/20 12:17:13;;;;;;;;;;;;;;;43.64;12.33;101226.66;1691429;83;25754;-62
2022/07/20 12:19:45;;;;;;;;;;;;;;;43.99;12.06;101225.38;1691156;83;27491;-62
2022/07/20 12:22:26;;;;;;;;;;;;;;;44.04;11.95;101215.23;1689455;84;25766;-62
2022/07/20 12:24:56;;;;;;;;;;;;;;;43.68;12.22;101214.02;1682154;85;25794;-62
2022/07/20 12:27:24;;;;;;;;;;;;;;;42.98;12.65;101215.58;1691111;84;25766;-62
2022/07/20 12:29:52;;;;;;;;;;;;;;;43.26;12.34;101208.72;1691360;85;25790;-61
2022/07/20 12:32:31;;;;;;;;;;;;;;;43.17;12.69;101209.41;1691164;84;27484;-62
2022/07/20 12:34:58;;;;;;;;;;;;;;;43.21;12.72;101199.05;1692667;84;26885;-61
2022/07/20 12:37:45;;;;;;;;;;;;;;;43.35;12.85;101199.33;1691398;84;25750;-61
2022/07/20 12:40:12;;;;;;;;;;;;;;;43.47;12.52;101197.34;1692928;84;25799;-61
2022/07/20 12:42:38;;;;;;;;;;;;;;;44.09;12.60;101189.47;1693369;84;25763;-62
2022/07/20 12:45:07;;;;;;;;;;;;;;;44.41;12.17;101179.75;1691687;84;27443;-62
2022/07/20 12:47:34;;;;;;;;;;;;;;;44.39;12.12;101175.03;1693232;84;25788;-62